Главная страница
METAR-TAF:

METAR-TAF

Аэропорты :

Дакар, Сенегал

широта: 14-44N, долгота: 017-30W, высота над уровнем моря: 27 м

Текущие метеонаблюдения

Эта сводка был подготовлена 54 минут назад, в 23:00 UTC
Ветер 4 Узел от северный
Температура 21°C
Влажность 88%
Давление 1016 hPa
Видимость: 8000 м

METAR: GOOY 182300Z 36004KT 8000 NSC 21/19 Q1016

Время: 23:54 (23:54 UTC)

Прогноз

Эта сводка был подготовлена 24 минут назад, в 23:30 UTC
Прогноз действительный с 19-го 00 UTC до 20-го 06 UTC
Ветер 10 Узел от северный
Видимость 10 км и более
Нет облачности ниже 1500 м, и нет кучево-дождевой облачности

TAF: GOOY 182330Z 1900/2006 36010KT CAVOK

Метеонаблюдения и прогнозы для более 4000 аэропортов (сводки METAR и TAF).

Имеющиеся станции представлены на карте желтыми и красными точками.

Чтобы увидеть название станции, наведите на нее мышь.

Затем щелкните, чтобы увидеть метеонаблюдения и метеопрогнозы.

Управление картой: чтобы увеличить масштаб, щелкните зеленые кнопки с черным крестиком; чтобы уменьшить масштаб, щелкните зеленую кнопку с тире; для просмотра соседних карт щелкайте зеленые стрелки.


METAR-TAF: